Time;durP1;ratioP1;P1;durP2;ratioP2;P2;SDS_P1;SDS_P2;PMS_P1;PMS_P2;Temp;Humidity;BMP_temperature;BMP_pressure;BME280_temperature;BME280_humidity;BME280_pressure;Samples;Min_cycle;Max_cycle;Signal;HPM_P1;HPM_P2
2021/10/05 00:02:04;;;;;;;4.30;1.17;;;11.80;99.90;;;;;;5060460;28;20546;-86
2021/10/05 00:04:30;;;;;;;4.20;1.00;;;11.70;99.90;;;;;;5069900;28;20051;-80
2021/10/05 00:06:55;;;;;;;4.72;1.20;;;11.80;99.90;;;;;;5073321;28;20045;-82
2021/10/05 00:09:21;;;;;;;4.80;1.40;;;11.70;99.90;;;;;;5055270;28;20127;-86
2021/10/05 00:11:47;;;;;;;6.18;1.45;;;11.70;99.90;;;;;;5076736;28;20161;-81
2021/10/05 00:14:12;;;;;;;9.18;1.48;;;11.60;99.90;;;;;;5079644;28;20074;-81
2021/10/05 00:16:38;;;;;;;5.68;1.40;;;11.90;99.90;;;;;;5059879;28;20547;-81
2021/10/05 00:19:04;;;;;;;4.28;1.50;;;11.80;99.90;;;;;;5073659;28;20094;-86
2021/10/05 00:21:29;;;;;;;7.22;1.50;;;11.70;99.90;;;;;;5058205;28;20042;-83
2021/10/05 00:23:55;;;;;;;6.07;1.40;;;11.60;99.90;;;;;;5059071;28;20119;-82
2021/10/05 00:26:21;;;;;;;6.10;1.58;;;11.60;99.90;;;;;;5076943;28;20032;-82
2021/10/05 00:28:46;;;;;;;4.75;1.58;;;11.60;99.90;;;;;;5076430;28;20040;-83
2021/10/05 00:31:13;;;;;;;5.93;1.33;;;11.50;99.90;;;;;;5083554;28;20071;-81
2021/10/05 00:33:38;;;;;;;6.68;1.70;;;11.70;99.90;;;;;;5082841;28;20104;-80
2021/10/05 00:36:04;;;;;;;6.05;1.50;;;11.50;99.90;;;;;;5068699;28;20080;-81
2021/10/05 00:38:30;;;;;;;6.93;1.35;;;11.50;99.90;;;;;;5066103;28;20095;-85
2021/10/05 00:40:56;;;;;;;5.20;1.25;;;11.50;99.90;;;;;;5098981;28;20071;-84
2021/10/05 00:43:23;;;;;;;4.22;1.20;;;11.40;99.90;;;;;;5069094;28;20099;-82
2021/10/05 00:45:49;;;;;;;3.85;1.30;;;11.50;99.90;;;;;;5094832;28;20035;-84
2021/10/05 00:48:15;;;;;;;4.93;1.38;;;11.70;99.90;;;;;;5078527;28;20040;-83
2021/10/05 00:50:40;;;;;;;4.95;1.40;;;11.70;99.90;;;;;;5062692;28;20039;-80
2021/10/05 00:53:06;;;;;;;6.32;1.85;;;11.40;99.90;;;;;;5058665;28;20047;-87
2021/10/05 00:55:32;;;;;;;9.15;1.73;;;11.30;99.90;;;;;;5056497;28;20062;-83
2021/10/05 00:57:58;;;;;;;6.32;1.70;;;11.40;99.90;;;;;;5097832;28;20119;-82
2021/10/05 01:00:24;;;;;;;3.35;1.30;;;11.50;99.90;;;;;;5066081;28;20112;-83
2021/10/05 01:02:50;;;;;;;6.13;1.55;;;11.50;99.90;;;;;;5057747;28;20042;-81
2021/10/05 01:05:16;;;;;;;8.57;1.45;;;11.10;99.90;;;;;;5092368;28;20531;-83
2021/10/05 01:07:47;;;;;;;10.95;1.65;;;11.00;99.90;;;;;;5062755;28;20324;-85
2021/10/05 01:10:17;;;;;;;7.32;1.30;;;11.30;99.90;;;;;;5075023;28;20067;-84
2021/10/05 01:12:46;;;;;;;5.05;1.40;;;11.00;99.90;;;;;;5065822;28;20036;-82
2021/10/05 01:15:12;;;;;;;3.58;1.23;;;11.00;99.90;;;;;;5067871;28;20040;-82
2021/10/05 01:17:38;;;;;;;5.35;1.45;;;11.00;99.90;;;;;;5057716;28;20036;-82
2021/10/05 01:20:04;;;;;;;7.18;1.45;;;11.20;99.90;;;;;;5074250;28;20372;-82
2021/10/05 01:22:30;;;;;;;6.38;1.30;;;10.90;99.90;;;;;;5082570;28;20120;-85
2021/10/05 01:24:56;;;;;;;6.30;1.88;;;10.90;99.90;;;;;;5065606;28;20128;-83
2021/10/05 01:30:47;;;;;;;7.05;1.90;;;10.80;99.90;;;;;;5099535;28;20119;-84
2021/10/05 01:33:13;;;;;;;5.03;1.40;;;10.80;99.90;;;;;;5099801;28;20039;-84
2021/10/05 01:35:39;;;;;;;9.80;1.40;;;11.10;99.90;;;;;;5079644;28;20097;-82
2021/10/05 01:38:05;;;;;;;8.57;1.45;;;10.70;99.90;;;;;;5070639;28;20483;-82
2021/10/05 01:40:31;;;;;;;6.72;1.48;;;11.00;99.90;;;;;;5074468;28;20315;-85
2021/10/05 01:42:57;;;;;;;4.10;1.27;;;10.90;99.90;;;;;;5076344;28;20047;-83
2021/10/05 01:45:22;;;;;;;7.07;1.50;;;10.60;99.90;;;;;;5068574;28;20032;-82
2021/10/05 01:47:48;;;;;;;5.82;1.60;;;10.60;99.90;;;;;;5069590;28;20074;-87
2021/10/05 01:50:14;;;;;;;11.68;1.92;;;10.60;99.90;;;;;;5078539;28;20036;-85
2021/10/05 01:52:40;;;;;;;3.58;1.60;;;10.60;99.90;;;;;;5088591;28;20036;-84
2021/10/05 01:55:07;;;;;;;6.05;1.67;;;10.60;99.90;;;;;;5059637;28;20040;-85
2021/10/05 01:57:33;;;;;;;7.32;1.60;;;10.60;99.90;;;;;;5063700;28;20462;-82
2021/10/05 01:59:59;;;;;;;8.43;1.75;;;10.50;99.90;;;;;;5088135;27;20137;-86
2021/10/05 02:02:25;;;;;;;9.52;1.70;;;10.50;99.90;;;;;;5094427;28;20130;-80
2021/10/05 02:04:51;;;;;;;5.78;1.75;;;10.50;99.90;;;;;;5088269;27;20040;-87
2021/10/05 02:07:17;;;;;;;5.07;2.08;;;10.50;99.90;;;;;;5084896;28;20050;-85
2021/10/05 02:09:47;;;;;;;7.03;1.70;;;10.60;99.90;;;;;;5074499;28;20028;-81
2021/10/05 02:12:17;;;;;;;6.88;2.22;;;10.40;99.90;;;;;;5068156;28;20055;-82
2021/10/05 02:14:47;;;;;;;6.18;2.33;;;10.70;99.90;;;;;;5078002;28;20092;-85
2021/10/05 02:17:14;;;;;;;6.03;2.20;;;10.60;99.90;;;;;;5079159;28;20036;-82
2021/10/05 02:19:40;;;;;;;9.35;2.50;;;10.50;99.90;;;;;;5077029;28;20036;-85
2021/10/05 02:22:06;;;;;;;7.43;2.53;;;10.40;99.90;;;;;;5077983;28;20517;-83
2021/10/05 02:27:10;;;;;;;9.02;2.08;;;10.40;99.90;;;;;;5089041;28;20047;-86
2021/10/05 02:29:36;;;;;;;9.27;2.42;;;10.40;99.90;;;;;;5088248;28;20487;-81
2021/10/05 02:32:06;;;;;;;8.90;2.40;;;10.80;99.90;;;;;;5088382;28;20040;-84
2021/10/05 02:34:33;;;;;;;10.02;2.67;;;10.40;99.90;;;;;;5081539;28;20300;-81
2021/10/05 02:36:59;;;;;;;17.40;2.75;;;10.40;99.90;;;;;;5071845;28;20054;-81
2021/10/05 02:39:24;;;;;;;7.75;2.50;;;10.40;99.90;;;;;;5090765;28;20047;-83
2021/10/05 02:41:51;;;;;;;10.18;2.58;;;10.40;99.90;;;;;;5089680;28;20134;-81
2021/10/05 02:44:17;;;;;;;9.88;2.40;;;10.30;99.90;;;;;;5054884;28;20048;-81
2021/10/05 02:46:43;;;;;;;6.30;2.30;;;10.30;99.90;;;;;;5066046;28;20036;-82
2021/10/05 02:49:09;;;;;;;7.90;2.80;;;10.30;99.90;;;;;;5061332;28;20138;-82
2021/10/05 02:51:35;;;;;;;10.30;2.85;;;10.30;99.90;;;;;;5086864;28;20048;-82
2021/10/05 02:54:01;;;;;;;9.50;2.63;;;10.30;99.90;;;;;;5065024;28;20052;-84
2021/10/05 02:56:27;;;;;;;6.47;2.58;;;10.60;99.90;;;;;;5080008;28;20036;-79
2021/10/05 02:58:54;;;;;;;10.13;3.17;;;10.20;99.90;;;;;;5072294;28;20036;-80
2021/10/05 03:01:19;;;;;;;10.55;2.85;;;10.50;99.90;;;;;;5064242;28;20072;-85
2021/10/05 03:03:45;;;;;;;5.85;2.80;;;10.20;99.90;;;;;;5089480;28;20541;-83
2021/10/05 03:06:11;;;;;;;8.75;3.10;;;10.30;99.90;;;;;;5068804;28;20141;-84
2021/10/05 03:08:40;;;;;;;10.43;3.50;;;10.40;99.90;;;;;;5058453;28;20047;-81
2021/10/05 03:11:06;;;;;;;5.85;2.83;;;10.40;99.90;;;;;;5077444;28;20050;-84
2021/10/05 03:13:35;;;;;;;5.75;3.22;;;10.10;99.90;;;;;;5059232;28;20131;-84
2021/10/05 03:16:04;;;;;;;9.25;3.20;;;10.10;99.90;;;;;;5077549;28;20547;-84
2021/10/05 03:18:30;;;;;;;8.45;3.25;;;10.10;99.90;;;;;;5077348;28;20548;-80
2021/10/05 03:20:56;;;;;;;7.13;3.30;;;10.10;99.90;;;;;;5080695;28;20044;-82
2021/10/05 03:23:22;;;;;;;8.10;3.35;;;10.10;99.90;;;;;;5082855;28;20407;-83
2021/10/05 03:25:48;;;;;;;7.30;3.45;;;10.10;99.90;;;;;;5056229;28;20125;-81
2021/10/05 03:28:14;;;;;;;9.10;3.30;;;10.50;99.90;;;;;;5062680;28;20047;-85
2021/10/05 03:30:40;;;;;;;12.77;3.95;;;10.00;99.90;;;;;;5075050;28;20032;-87
2021/10/05 03:33:05;;;;;;;10.60;3.63;;;9.90;99.90;;;;;;5074423;28;20121;-86
2021/10/05 03:35:31;;;;;;;10.55;3.67;;;10.00;99.90;;;;;;5069117;28;20476;-84
2021/10/05 03:37:57;;;;;;;8.50;3.97;;;9.90;99.90;;;;;;5077556;28;20044;-85
2021/10/05 03:40:23;;;;;;;9.32;3.83;;;9.80;99.90;;;;;;5079400;28;20099;-84
2021/10/05 03:42:48;;;;;;;12.68;3.90;;;9.90;99.90;;;;;;5075541;28;20139;-84
2021/10/05 03:45:14;;;;;;;6.45;4.03;;;9.90;99.90;;;;;;5073733;28;20070;-87
2021/10/05 03:47:40;;;;;;;6.57;3.92;;;10.00;99.90;;;;;;5075367;28;20128;-83
2021/10/05 03:50:08;;;;;;;12.40;4.50;;;9.90;99.90;;;;;;5054564;28;20403;-81
2021/10/05 03:52:33;;;;;;;9.18;4.28;;;9.90;99.90;;;;;;5077500;28;20044;-83
2021/10/05 03:54:59;;;;;;;7.93;4.38;;;9.80;99.90;;;;;;5078086;28;20124;-84
2021/10/05 03:57:25;;;;;;;6.97;4.35;;;10.20;99.90;;;;;;5068156;28;20040;-85
2021/10/05 03:59:51;;;;;;;12.32;4.43;;;9.80;99.90;;;;;;5054998;28;20443;-84
2021/10/05 04:02:16;;;;;;;10.93;4.55;;;9.80;99.90;;;;;;5087616;28;20040;-85
2021/10/05 04:04:42;;;;;;;12.18;4.88;;;9.80;99.90;;;;;;5065679;28;20044;-82
2021/10/05 04:07:08;;;;;;;9.48;4.85;;;9.80;99.90;;;;;;5076875;28;20428;-84
2021/10/05 04:09:34;;;;;;;12.02;4.82;;;9.90;99.90;;;;;;5086789;28;20036;-83
2021/10/05 04:11:59;;;;;;;7.32;5.07;;;9.70;99.90;;;;;;5057622;28;20317;-83
2021/10/05 04:14:25;;;;;;;14.32;5.00;;;9.90;99.90;;;;;;5070082;28;20051;-80
2021/10/05 04:16:51;;;;;;;8.52;5.28;;;10.10;99.90;;;;;;5077715;28;20500;-82
2021/10/05 04:19:16;;;;;;;8.98;5.50;;;10.10;99.90;;;;;;5059305;28;20040;-83
2021/10/05 04:21:42;;;;;;;8.63;5.13;;;9.70;99.90;;;;;;5072169;28;20123;-87
2021/10/05 04:24:08;;;;;;;7.25;5.30;;;9.70;99.90;;;;;;5058335;28;20034;-82
2021/10/05 04:26:34;;;;;;;10.48;4.93;;;9.70;99.90;;;;;;5060668;28;20101;-83
2021/10/05 04:28:59;;;;;;;9.48;5.45;;;9.70;99.90;;;;;;5057917;28;20037;-84
2021/10/05 04:31:26;;;;;;;9.13;5.55;;;9.70;99.90;;;;;;5079263;28;20047;-80
2021/10/05 04:33:51;;;;;;;10.30;5.60;;;10.10;99.90;;;;;;5075054;28;20556;-82
2021/10/05 04:36:17;;;;;;;10.57;5.78;;;9.70;99.90;;;;;;5057377;28;20032;-84
2021/10/05 04:38:43;;;;;;;16.38;5.10;;;10.00;99.90;;;;;;5061984;28;20037;-82
2021/10/05 04:41:08;;;;;;;9.18;5.50;;;10.10;99.90;;;;;;5076460;28;20044;-83
2021/10/05 04:43:36;;;;;;;6.97;5.07;;;9.70;99.90;;;;;;5071254;28;20049;-81
2021/10/05 04:46:01;;;;;;;12.98;5.88;;;9.60;99.90;;;;;;5081166;28;20395;-86
2021/10/05 04:48:27;;;;;;;10.13;5.53;;;9.80;99.90;;;;;;5059286;28;20049;-83
2021/10/05 04:50:53;;;;;;;7.82;5.35;;;9.80;99.90;;;;;;5081257;28;20105;-82
2021/10/05 04:53:19;;;;;;;11.98;5.75;;;9.80;99.90;;;;;;5071446;28;20429;-83
2021/10/05 04:55:46;;;;;;;11.23;6.00;;;10.00;99.90;;;;;;5073403;28;20048;-82
2021/10/05 04:58:12;;;;;;;10.13;5.88;;;9.70;99.90;;;;;;5091431;28;20051;-83
2021/10/05 05:00:38;;;;;;;10.65;5.80;;;9.70;99.90;;;;;;5084827;28;20127;-82
2021/10/05 05:03:04;;;;;;;7.57;5.22;;;9.80;99.90;;;;;;5065539;28;20211;-83
2021/10/05 05:05:30;;;;;;;14.30;5.80;;;9.70;99.90;;;;;;5087769;28;20097;-82
2021/10/05 05:07:59;;;;;;;8.85;5.68;;;10.10;99.90;;;;;;5084701;28;20032;-82
2021/10/05 05:10:25;;;;;;;10.30;5.75;;;10.00;99.90;;;;;;5086712;28;20499;-83
2021/10/05 05:12:51;;;;;;;9.85;5.93;;;9.80;99.90;;;;;;5072020;28;20269;-82
2021/10/05 05:15:17;;;;;;;8.25;5.90;;;10.10;99.90;;;;;;5084995;28;20067;-81
2021/10/05 05:17:42;;;;;;;9.10;6.25;;;9.70;99.90;;;;;;5075362;28;20575;-82
2021/10/05 05:20:08;;;;;;;11.73;5.70;;;9.70;99.90;;;;;;5083341;28;20378;-85
2021/10/05 05:22:36;;;;;;;8.55;6.03;;;9.70;99.90;;;;;;5090550;28;20472;-83
2021/10/05 05:25:06;;;;;;;9.80;5.70;;;9.60;99.90;;;;;;5061119;28;20402;-82
2021/10/05 05:27:32;;;;;;;12.10;5.97;;;9.90;99.90;;;;;;5083580;28;20115;-83
2021/10/05 05:29:58;;;;;;;10.23;6.03;;;9.80;99.90;;;;;;5070541;28;20112;-80
2021/10/05 05:32:24;;;;;;;7.85;5.40;;;10.10;99.90;;;;;;5081481;28;20052;-79
2021/10/05 05:34:49;;;;;;;12.55;5.82;;;9.70;99.90;;;;;;5059187;28;20554;-80
2021/10/05 05:37:15;;;;;;;10.35;5.47;;;9.60;99.90;;;;;;5081202;28;20040;-79
2021/10/05 05:39:43;;;;;;;11.73;5.55;;;9.60;99.90;;;;;;5071937;28;20197;-81
2021/10/05 05:42:10;;;;;;;11.88;5.18;;;9.70;99.90;;;;;;5061533;28;20060;-80
2021/10/05 05:44:38;;;;;;;7.68;5.40;;;9.60;99.90;;;;;;5068251;28;20044;-82
2021/10/05 05:47:05;;;;;;;9.00;5.43;;;9.60;99.90;;;;;;5080152;28;20037;-82
2021/10/05 05:49:30;;;;;;;10.82;5.28;;;9.60;99.90;;;;;;5073116;28;20036;-80
2021/10/05 05:51:56;;;;;;;10.20;5.97;;;9.70;99.90;;;;;;5075240;28;20085;-83
2021/10/05 05:54:22;;;;;;;9.23;5.57;;;9.60;99.90;;;;;;5059839;28;20032;-82
2021/10/05 05:56:47;;;;;;;10.10;5.63;;;9.60;99.90;;;;;;5061100;28;20036;-81
2021/10/05 05:59:13;;;;;;;10.90;5.45;;;9.70;99.90;;;;;;5073927;28;20111;-82
2021/10/05 06:01:40;;;;;;;9.57;5.70;;;9.70;99.90;;;;;;5079950;28;20424;-75
2021/10/05 06:04:06;;;;;;;11.27;5.72;;;9.60;99.90;;;;;;5076222;28;20068;-76
2021/10/05 06:06:32;;;;;;;10.07;6.07;;;10.00;99.90;;;;;;5077876;28;20087;-81
2021/10/05 06:08:59;;;;;;;10.20;6.13;;;9.60;99.90;;;;;;5081376;28;20043;-81
2021/10/05 06:11:28;;;;;;;10.98;6.05;;;9.70;99.90;;;;;;5080351;28;20371;-80
2021/10/05 06:13:54;;;;;;;9.07;5.70;;;9.60;99.90;;;;;;5078199;28;20513;-82
2021/10/05 06:16:19;;;;;;;9.95;5.75;;;9.60;99.90;;;;;;5078135;28;20076;-81
2021/10/05 06:18:45;;;;;;;10.50;5.90;;;9.70;99.90;;;;;;5084180;28;20123;-82
2021/10/05 06:21:12;;;;;;;13.48;6.20;;;9.60;99.90;;;;;;5069961;28;20068;-81
2021/10/05 06:23:38;;;;;;;14.48;6.05;;;9.60;99.90;;;;;;5079724;28;20032;-81
2021/10/05 06:26:04;;;;;;;9.45;5.78;;;9.70;99.90;;;;;;5082504;28;20111;-81
2021/10/05 06:28:31;;;;;;;10.52;5.93;;;9.60;99.90;;;;;;5064376;28;20519;-83
2021/10/05 06:30:57;;;;;;;9.43;5.60;;;10.30;99.90;;;;;;5076444;28;20044;-82
2021/10/05 06:33:23;;;;;;;8.38;6.03;;;9.70;99.90;;;;;;5057478;28;20127;-83
2021/10/05 06:35:49;;;;;;;10.27;5.90;;;9.70;99.90;;;;;;5061813;28;20127;-82
2021/10/05 06:38:15;;;;;;;8.82;5.57;;;9.90;99.90;;;;;;5079247;28;20047;-80
2021/10/05 06:40:42;;;;;;;9.75;5.88;;;9.90;99.90;;;;;;5076150;28;20048;-81
2021/10/05 06:43:09;;;;;;;12.13;6.00;;;9.80;99.90;;;;;;5061915;28;20132;-84
2021/10/05 06:45:35;;;;;;;9.85;6.45;;;10.30;99.90;;;;;;5074304;28;20032;-82
2021/10/05 06:48:01;;;;;;;9.50;6.13;;;9.80;99.90;;;;;;5087645;28;20094;-82
2021/10/05 06:50:30;;;;;;;10.93;6.28;;;9.90;99.90;;;;;;5079305;28;20036;-80
2021/10/05 06:52:56;;;;;;;11.60;6.18;;;10.40;99.90;;;;;;5082376;28;20105;-80
2021/10/05 06:55:21;;;;;;;10.10;6.20;;;10.00;99.90;;;;;;5078231;28;20441;-83
2021/10/05 06:57:47;;;;;;;10.75;6.07;;;10.00;99.90;;;;;;5080881;28;20028;-81
2021/10/05 07:00:15;;;;;;;9.57;5.80;;;10.00;99.90;;;;;;5077510;28;20037;-82
2021/10/05 07:02:43;;;;;;;11.65;5.90;;;10.10;99.90;;;;;;5056455;28;20032;-81
2021/10/05 07:05:09;;;;;;;16.05;5.85;;;10.20;99.90;;;;;;5059317;28;20027;-83
2021/10/05 07:07:43;;;;;;;9.38;5.35;;;10.40;99.90;;;;;;5065450;28;20043;-83
2021/10/05 07:10:10;;;;;;;9.55;5.38;;;10.40;99.90;;;;;;5079661;28;20390;-82
2021/10/05 07:12:37;;;;;;;7.25;5.28;;;10.50;99.90;;;;;;5062442;28;20048;-84
2021/10/05 07:15:08;;;;;;;9.85;5.22;;;10.60;99.90;;;;;;5067148;28;20147;-84
2021/10/05 07:17:34;;;;;;;7.88;5.00;;;10.70;99.90;;;;;;5062773;28;20500;-83
2021/10/05 07:20:00;;;;;;;6.88;4.85;;;10.80;99.90;;;;;;5079678;28;20036;-81
2021/10/05 07:22:25;;;;;;;7.40;4.65;;;10.90;99.90;;;;;;5081446;28;20044;-83
2021/10/05 07:24:51;;;;;;;7.95;4.80;;;10.90;99.90;;;;;;5082452;28;20037;-81
2021/10/05 07:27:19;;;;;;;7.53;4.38;;;11.10;99.90;;;;;;5081921;28;20237;-83
2021/10/05 07:29:45;;;;;;;8.77;4.40;;;11.00;99.90;;;;;;5106026;28;20036;-82
2021/10/05 07:32:11;;;;;;;6.50;4.30;;;11.10;99.90;;;;;;5082149;28;20317;-78
2021/10/05 07:34:37;;;;;;;5.20;4.07;;;11.10;99.90;;;;;;5073252;28;20093;-80
2021/10/05 07:37:03;;;;;;;7.45;4.10;;;11.20;99.90;;;;;;5078440;28;20039;-84
2021/10/05 07:39:29;;;;;;;5.78;4.32;;;11.20;99.90;;;;;;5077341;28;20100;-78
2021/10/05 07:41:54;;;;;;;9.82;4.25;;;11.30;99.90;;;;;;5077820;28;20048;-82
2021/10/05 07:44:20;;;;;;;6.18;3.70;;;11.30;99.90;;;;;;5080994;28;20048;-82
2021/10/05 07:46:46;;;;;;;4.90;3.50;;;11.40;99.90;;;;;;5091088;28;20047;-80
2021/10/05 07:49:12;;;;;;;5.20;3.58;;;11.60;99.90;;;;;;5091002;28;20047;-80
2021/10/05 07:51:38;;;;;;;4.75;3.22;;;11.50;99.90;;;;;;5088939;28;20032;-80
2021/10/05 07:54:05;;;;;;;9.52;3.38;;;11.60;99.90;;;;;;5076947;28;20391;-82
2021/10/05 07:56:31;;;;;;;6.20;3.25;;;11.80;99.90;;;;;;5053756;28;20446;-81
2021/10/05 07:58:57;;;;;;;5.45;3.10;;;11.80;99.90;;;;;;5075899;28;20032;-81
2021/10/05 08:01:23;;;;;;;5.30;3.35;;;11.80;99.90;;;;;;5073569;28;20120;-78
2021/10/05 08:03:48;;;;;;;7.75;3.17;;;12.00;99.90;;;;;;5056192;28;20158;-82
2021/10/05 08:06:14;;;;;;;3.92;3.15;;;11.90;99.90;;;;;;5052997;28;20158;-81
2021/10/05 08:08:40;;;;;;;6.32;3.30;;;11.90;99.90;;;;;;5065872;28;20043;-81
2021/10/05 08:11:06;;;;;;;6.28;3.42;;;11.90;99.90;;;;;;5071789;28;20058;-81
2021/10/05 08:13:32;;;;;;;6.55;3.33;;;11.90;99.90;;;;;;5061262;28;20040;-81
2021/10/05 08:15:58;;;;;;;4.25;2.97;;;12.30;99.90;;;;;;5062860;28;20043;-77
2021/10/05 08:18:27;;;;;;;5.03;2.92;;;12.00;99.90;;;;;;5074524;28;20044;-80
2021/10/05 08:20:53;;;;;;;4.63;3.80;;;12.30;99.90;;;;;;5076610;28;20039;-82
2021/10/05 08:23:20;;;;;;;4.80;2.90;;;12.20;99.90;;;;;;5076530;28;20028;-81
2021/10/05 08:25:45;;;;;;;3.72;3.05;;;12.60;99.90;;;;;;5069242;28;20042;-80
2021/10/05 08:28:12;;;;;;;5.13;3.05;;;12.30;99.90;;;;;;5061372;28;20037;-82
2021/10/05 08:30:39;;;;;;;4.68;3.38;;;12.40;99.90;;;;;;5076307;28;20071;-84
2021/10/05 08:33:05;;;;;;;7.68;3.63;;;12.30;99.90;;;;;;5081286;28;20036;-84
2021/10/05 08:35:31;;;;;;;8.38;4.03;;;12.50;99.90;;;;;;5097947;28;20448;-84
2021/10/05 08:37:57;;;;;;;11.13;4.00;;;12.50;99.90;;;;;;5078904;28;20090;-81
2021/10/05 08:40:24;;;;;;;6.25;3.60;;;12.50;99.90;;;;;;5061825;28;20055;-85
2021/10/05 08:42:50;;;;;;;9.35;3.78;;;12.60;99.90;;;;;;5059346;28;20051;-82
2021/10/05 08:45:17;;;;;;;6.03;3.70;;;12.50;99.90;;;;;;5075963;28;20036;-83
2021/10/05 08:47:42;;;;;;;6.55;3.40;;;12.70;99.90;;;;;;5088289;28;20035;-82
2021/10/05 08:50:09;;;;;;;8.93;3.63;;;12.60;99.90;;;;;;5079550;28;20117;-82
2021/10/05 08:52:36;;;;;;;6.18;3.40;;;12.70;99.90;;;;;;5100166;28;20044;-82
2021/10/05 08:55:03;;;;;;;9.25;3.88;;;12.70;99.90;;;;;;5072909;28;20050;-84
2021/10/05 08:57:30;;;;;;;5.38;3.40;;;13.00;99.90;;;;;;5063313;28;20051;-80
2021/10/05 09:00:04;;;;;;;7.18;3.45;;;13.10;99.90;;;;;;5062069;28;20132;-83
2021/10/05 09:02:50;;;;;;;5.63;3.30;;;13.30;99.90;;;;;;5065480;28;20040;-81
2021/10/05 09:05:17;;;;;;;4.00;2.80;;;13.40;99.90;;;;;;5063490;28;20093;-83
2021/10/05 09:07:45;;;;;;;4.60;2.92;;;13.70;99.90;;;;;;5063515;28;20483;-81
2021/10/05 09:10:14;;;;;;;5.97;2.85;;;13.80;99.90;;;;;;5061902;28;20573;-84
2021/10/05 09:12:40;;;;;;;4.85;2.97;;;14.00;99.90;;;;;;5065305;28;20039;-84
2021/10/05 09:15:10;;;;;;;4.35;2.75;;;14.20;99.90;;;;;;5082903;28;20103;-83
2021/10/05 09:17:36;;;;;;;5.13;3.20;;;14.20;99.90;;;;;;5063119;28;20071;-86
2021/10/05 09:20:13;;;;;;;7.05;2.80;;;14.20;99.90;;;;;;5055888;28;20086;-86
2021/10/05 09:22:39;;;;;;;3.30;2.38;;;14.20;99.90;;;;;;5090586;28;20043;-84
2021/10/05 09:25:10;;;;;;;5.85;3.20;;;14.30;99.90;;;;;;5091531;28;20418;-83
2021/10/05 09:27:48;;;;;;;6.20;2.53;;;14.40;99.90;;;;;;5068260;28;20044;-86
2021/10/05 09:30:17;;;;;;;4.35;2.95;;;14.40;99.90;;;;;;5093504;28;20534;-85
2021/10/05 09:32:56;;;;;;;5.93;2.80;;;14.50;99.90;;;;;;5067925;28;20043;-85
2021/10/05 09:35:22;;;;;;;3.08;2.50;;;14.60;99.90;;;;;;5072866;28;20058;-84
2021/10/05 09:37:48;;;;;;;4.43;2.50;;;14.70;99.90;;;;;;5081538;28;20126;-86
2021/10/05 09:40:13;;;;;;;5.40;2.30;;;14.90;99.90;;;;;;5060948;28;20457;-85
2021/10/05 09:42:43;;;;;;;4.13;2.22;;;15.00;99.90;;;;;;5095743;28;20059;-82
2021/10/05 09:45:14;;;;;;;4.93;2.65;;;14.90;99.90;;;;;;5084288;28;20055;-83
2021/10/05 09:47:45;;;;;;;3.00;2.30;;;15.00;99.90;;;;;;5060156;28;20040;-85
2021/10/05 09:50:15;;;;;;;4.95;2.60;;;15.00;99.90;;;;;;5063354;28;20048;-86
2021/10/05 09:52:44;;;;;;;6.03;2.33;;;15.10;99.90;;;;;;5064689;28;20047;-85
2021/10/05 09:55:10;;;;;;;5.10;2.25;;;15.00;99.90;;;;;;5076061;28;20104;-85
2021/10/05 09:57:36;;;;;;;3.70;1.83;;;15.20;99.90;;;;;;5078917;28;20410;-87
2021/10/05 10:00:04;;;;;;;3.65;2.05;;;15.50;99.90;;;;;;5076103;28;20059;-86
2021/10/05 10:02:32;;;;;;;2.95;1.80;;;15.60;99.90;;;;;;5080316;28;20044;-85
2021/10/05 10:05:00;;;;;;;3.65;2.00;;;15.90;99.90;;;;;;5073161;28;20048;-81
2021/10/05 10:07:25;;;;;;;3.88;1.58;;;15.90;99.90;;;;;;5094175;27;20094;-87
2021/10/05 10:09:52;;;;;;;5.90;1.70;;;16.00;99.90;;;;;;5097442;28;20089;-84
2021/10/05 10:12:17;;;;;;;3.05;1.60;;;16.30;99.90;;;;;;5085007;28;20099;-82
2021/10/05 10:14:43;;;;;;;4.43;1.70;;;16.40;99.90;;;;;;5098384;27;20062;-82
2021/10/05 10:17:09;;;;;;;2.95;1.17;;;16.30;99.90;;;;;;5089529;28;20051;-81
2021/10/05 10:19:36;;;;;;;4.82;1.70;;;16.40;99.90;;;;;;5100784;28;20093;-86
2021/10/05 10:22:09;;;;;;;3.28;1.50;;;16.40;99.90;;;;;;5100584;28;20352;-85
2021/10/05 10:24:45;;;;;;;3.60;1.52;;;16.80;99.90;;;;;;5059334;28;20399;-85
2021/10/05 10:27:11;;;;;;;5.97;1.52;;;17.20;99.90;;;;;;5102443;28;20035;-85
2021/10/05 10:29:37;;;;;;;5.60;1.60;;;17.50;99.90;;;;;;5065567;28;20038;-82
2021/10/05 10:32:18;;;;;;;3.10;1.27;;;17.70;99.90;;;;;;5087134;28;20143;-84
2021/10/05 10:34:46;;;;;;;3.08;1.50;;;18.00;99.90;;;;;;5082820;28;20181;-82
2021/10/05 10:37:17;;;;;;;3.10;1.35;;;18.10;99.90;;;;;;5069655;28;20431;-83
2021/10/05 10:39:44;;;;;;;4.43;1.33;;;18.00;99.90;;;;;;5059276;28;20487;-83
2021/10/05 10:42:11;;;;;;;5.80;1.30;;;17.90;99.90;;;;;;5062486;28;20129;-84
2021/10/05 10:44:56;;;;;;;5.25;1.30;;;18.10;99.90;;;;;;5085879;28;20074;-85
2021/10/05 10:47:24;;;;;;;4.63;1.60;;;17.90;99.90;;;;;;5078942;28;20059;-84
2021/10/05 10:50:02;;;;;;;2.85;1.30;;;17.90;99.90;;;;;;5073951;28;20044;-80
2021/10/05 10:52:37;;;;;;;3.88;1.45;;;17.80;99.90;;;;;;5073232;28;20135;-85
2021/10/05 10:55:06;;;;;;;3.75;1.30;;;18.00;99.90;;;;;;5075461;28;20081;-78
2021/10/05 10:57:37;;;;;;;3.65;1.23;;;18.10;99.90;;;;;;5058631;28;20056;-82
2021/10/05 11:00:23;;;;;;;3.80;1.27;;;18.10;99.90;;;;;;5075356;28;20052;-83
2021/10/05 11:02:50;;;;;;;5.95;1.40;;;18.30;99.90;;;;;;5076064;28;20083;-82
2021/10/05 11:05:21;;;;;;;3.90;1.17;;;18.40;99.90;;;;;;5074668;28;20052;-83
2021/10/05 11:07:49;;;;;;;4.38;1.38;;;18.70;99.90;;;;;;5092427;28;20606;-83
2021/10/05 11:10:14;;;;;;;4.75;1.17;;;18.70;99.90;;;;;;5095114;28;20058;-83
2021/10/05 11:12:51;;;;;;;3.60;1.13;;;18.80;99.90;;;;;;5070196;28;20048;-79
2021/10/05 11:15:49;;;;;;;3.15;1.20;;;18.60;99.90;;;;;;5075843;28;20128;-79
2021/10/05 11:18:17;;;;;;;4.97;1.20;;;18.60;99.90;;;;;;5071305;28;20051;-78
2021/10/05 11:20:56;;;;;;;4.40;1.20;;;18.80;99.90;;;;;;5087811;28;20060;-78
2021/10/05 11:23:24;;;;;;;3.45;1.10;;;18.70;99.90;;;;;;5069440;28;20054;-78
2021/10/05 11:25:56;;;;;;;2.53;1.10;;;18.70;99.90;;;;;;5076313;28;20059;-79
2021/10/05 11:28:45;;;;;;;2.38;0.95;;;18.80;99.90;;;;;;5060918;28;20147;-78
2021/10/05 11:31:12;;;;;;;3.55;1.15;;;19.00;99.90;;;;;;5057680;28;20055;-78
2021/10/05 11:33:40;;;;;;;2.75;1.10;;;19.20;99.90;;;;;;5057922;28;20340;-78
2021/10/05 11:36:19;;;;;;;4.88;1.23;;;19.40;99.90;;;;;;5067189;28;20055;-78
2021/10/05 11:38:51;;;;;;;5.32;1.00;;;19.30;99.90;;;;;;5087714;28;20074;-77
2021/10/05 11:41:18;;;;;;;2.33;1.20;;;19.10;99.90;;;;;;5082297;28;20127;-78
2021/10/05 11:43:49;;;;;;;5.90;1.30;;;19.20;99.90;;;;;;5077480;28;20070;-78
2021/10/05 11:46:16;;;;;;;2.55;0.98;;;19.50;99.90;;;;;;5085662;28;20037;-77
2021/10/05 11:48:48;;;;;;;5.10;1.15;;;19.70;99.90;;;;;;5071691;28;20052;-78
2021/10/05 11:51:15;;;;;;;2.95;1.30;;;20.00;99.90;;;;;;5054112;28;20052;-79
2021/10/05 11:53:42;;;;;;;2.97;1.05;;;20.00;99.90;;;;;;5074589;28;20059;-78
2021/10/05 11:56:14;;;;;;;4.63;1.48;;;20.10;99.90;;;;;;5074259;28;20044;-76
2021/10/05 11:58:42;;;;;;;7.55;1.50;;;20.20;99.90;;;;;;5058054;28;20782;-80
2021/10/05 12:01:22;;;;;;;5.72;1.30;;;20.20;99.90;;;;;;5052831;28;20052;-77
2021/10/05 12:03:50;;;;;;;2.17;1.27;;;20.30;99.90;;;;;;5076464;28;20127;-77
2021/10/05 12:06:31;;;;;;;3.85;1.10;;;20.40;99.90;;;;;;5077265;28;20059;-77
2021/10/05 12:08:58;;;;;;;4.13;1.50;;;20.30;99.90;;;;;;5062608;28;20064;-78
2021/10/05 12:11:44;;;;;;;4.63;1.30;;;20.50;99.90;;;;;;5061768;28;20087;-79
2021/10/05 12:14:11;;;;;;;4.85;1.30;;;20.40;99.90;;;;;;5076779;28;20106;-78
2021/10/05 12:16:39;;;;;;;4.30;1.30;;;20.20;99.90;;;;;;5074219;28;20048;-79
2021/10/05 12:19:05;;;;;;;4.60;1.00;;;19.90;99.90;;;;;;5077735;28;20048;-77
2021/10/05 12:21:32;;;;;;;2.92;1.13;;;20.40;99.90;;;;;;5076673;28;22169;-77
2021/10/05 12:24:00;;;;;;;4.60;1.17;;;20.70;99.90;;;;;;5076375;28;20104;-76
2021/10/05 12:26:26;;;;;;;3.60;1.20;;;20.90;99.90;;;;;;5078816;28;20036;-78
2021/10/05 12:29:10;;;;;;;4.68;1.20;;;20.80;99.90;;;;;;5076505;28;20048;-76
2021/10/05 12:31:36;;;;;;;2.55;1.05;;;20.80;99.90;;;;;;5072833;28;20036;-78
2021/10/05 12:34:08;;;;;;;6.07;1.20;;;21.20;99.90;;;;;;5063720;28;20153;-79
2021/10/05 12:36:37;;;;;;;2.47;1.02;;;21.00;99.90;;;;;;5079492;28;20119;-79
2021/10/05 12:39:09;;;;;;;4.80;1.00;;;21.30;99.90;;;;;;5056524;28;20104;-76
2021/10/05 12:41:35;;;;;;;2.47;1.10;;;21.00;99.90;;;;;;5061508;28;20040;-77
2021/10/05 12:44:11;;;;;;;4.18;1.20;;;21.30;99.90;;;;;;5077340;28;20123;-78
2021/10/05 12:46:37;;;;;;;2.58;1.00;;;21.20;99.90;;;;;;5059331;28;20047;-79
2021/10/05 12:49:11;;;;;;;3.17;1.10;;;21.40;99.90;;;;;;5076278;28;20049;-77
2021/10/05 12:51:45;;;;;;;9.85;1.17;;;21.10;99.90;;;;;;5062159;28;20048;-78
2021/10/05 12:54:10;;;;;;;7.07;1.10;;;20.80;99.90;;;;;;5056825;28;20135;-77
2021/10/05 12:56:36;;;;;;;3.85;1.00;;;20.50;99.90;;;;;;5073648;28;20139;-78